MDT,Max TemperatureF,Mean TemperatureF,Min TemperatureF,Max Dew PointF,MeanDew PointF,Min DewpointF,Max Humidity, Mean Humidity, Min Humidity, Max Sea Level PressureIn, Mean Sea Level PressureIn, Min Sea Level PressureIn, Max VisibilityMiles, Mean VisibilityMiles, Min VisibilityMiles, Max Wind SpeedMPH, Mean Wind SpeedMPH, Max Gust SpeedMPH,PrecipitationIn, CloudCover, Events, WindDirDegrees
2013-9-1,90,67,43,44,39,35,83,49,15,30.06,29.95,29.85,10,10,10,12,5,20,0.00,0,,151
2013-9-2,89,72,54,44,40,36,61,39,17,29.92,29.86,29.80,10,10,10,28,8,38,0.00,0,,337
2013-9-3,81,69,57,52,47,42,64,45,26,30.12,30.00,29.91,10,10,10,16,8,21,0.00,3,,331
2013-9-4,89,73,57,53,49,43,80,51,21,30.09,30.03,29.98,10,10,10,13,3,15,0.00,2,,218
2013-9-5,88,70,52,62,52,46,93,62,30,30.02,29.98,29.92,10,10,10,33,8,41,0.01,2,Rain,326
2013-9-6,75,64,53,64,58,52,100,83,66,30.18,30.06,29.93,10,8,0,26,11,31,1.64,5,Fog-Rain,332
2013-9-7,67,62,57,59,57,55,93,83,73,30.18,30.12,30.04,10,9,3,23,6,26,0.20,7,Rain,32
2013-9-8,71,63,54,59,55,45,97,69,40,30.10,29.98,29.86,10,8,1,23,8,29,0.01,6,,334
2013-9-9,78,66,53,51,49,45,83,57,31,30.00,29.91,29.83,10,10,9,23,11,30,0.14,2,Rain,286
2013-9-10,80,66,51,51,48,44,89,60,30,30.11,30.03,29.96,10,10,10,13,6,17,0.00,0,,326
2013-9-11,78,62,46,51,46,41,93,60,27,30.27,30.23,30.14,10,10,10,15,6,21,0.00,0,,136
2013-9-12,81,63,45,47,44,42,86,56,26,30.25,30.13,29.98,10,10,10,17,5,22,0.00,0,,121
2013-9-13,84,65,46,52,47,44,93,60,26,29.95,29.86,29.79,10,10,10,21,7,24,0.00,0,,340
2013-9-14,76,65,53,51,46,38,72,54,36,30.12,30.03,29.87,10,10,10,21,11,26,0.00,1,,13
2013-9-15,78,60,42,51,44,38,82,57,32,30.12,30.00,29.80,10,10,10,21,8,31,0.00,0,,120
2013-9-16,84,68,52,54,45,37,83,52,20,29.78,29.72,29.64,10,10,10,31,13,37,0.00,0,,225
2013-9-17,73,61,49,47,41,35,83,56,29,29.76,29.66,29.56,10,10,10,22,9,32,0.00,0,,251
2013-9-18,56,48,39,45,39,35,92,77,61,30.12,29.81,29.56,10,10,10,36,22,44,0.05,6,Rain,311
2013-9-19,66,50,33,43,36,33,100,66,32,30.19,30.11,30.02,10,10,10,20,7,24,0.00,1,,251
2013-9-20,78,56,34,39,31,24,89,52,15,30.01,29.85,29.68,10,10,10,13,4,17,0.00,0,,172
2013-9-21,72,55,38,40,35,31,82,53,23,29.66,29.60,29.55,10,10,10,31,9,37,0.00,1,,247
2013-9-22,66,57,47,38,35,32,61,46,31,29.62,29.58,29.53,10,10,10,30,15,37,0.00,3,,245
2013-9-23,61,54,46,37,34,32,71,53,35,29.84,29.72,29.59,10,10,10,46,23,53,0.00,0,,241
2013-9-24,58,51,43,41,35,32,83,62,40,29.86,29.79,29.72,10,10,10,18,6,24,T,4,,229
2013-9-25,47,42,37,43,40,36,92,81,70,29.93,29.83,29.73,10,9,3,24,11,28,0.24,7,Rain,350
2013-9-26,50,42,34,35,31,28,82,69,56,30.06,30.01,29.94,10,10,10,24,17,29,0.00,3,,320
2013-9-27,58,44,30,32,28,24,85,57,28,30.00,29.87,29.78,10,10,10,30,16,36,0.00,0,,252
2013-9-28,57,48,38,40,36,31,76,62,47,29.82,29.71,29.53,10,10,10,39,15,47,0.00,2,,225
2013-9-29,58,51,43,40,33,30,66,54,41,29.58,29.45,29.26,10,10,10,53,27,66,0.00,0,,229
2013-9-30,54,45,36,36,31,26,75,55,35,29.75,29.51,29.39,10,10,10,56,26,68,0.00,0,,241